Milwaukee, Wisconsin
Traffic Map
Current Weather Conditions
Milwaukee, Wisconsin
Broken Clouds
Broken Clouds
16°
Feels Like: 1°
Wind Chill: Ceiling: 25000
Heat Index: 16° Visibility: 10mi
Dew Point: Wind: 16mph
Humidity: 68% Direction: 310° (NW)
Pressure: 29.82in Gusts: 21mph
Raw Report DataKMKE 091552Z 31014G18KT 10SM SCT029 BKN250 M09/M14 A2982 RMK AO2 SLP109 T10891139
Traffic Incident Summary
Active as of:
Severity:
Category:
InformationThere was an issue retrieving the traffic information for this location. Please try a different location or try again shortly.
Advertisements
Track Severe Weather on mobile